TAMU Turf Lab's Hourly Summary for Monday, May 14, 2018
Hour Temp
(f)
RH
(%)
Solar Rad.
(MJ/m2)
Rainfall
(in)
Wind
(mph)
5/14/2018 12:00 AM 76 69 0 0 7.71
5/14/2018 1:00 AM 75 75 0 0 7.12
5/14/2018 2:00 AM 73 81 0 0 6
5/14/2018 3:00 AM 73 85 0 0 5.63
5/14/2018 4:00 AM 74 85 0 0 6.47
5/14/2018 5:00 AM 74 85 0 0 6
5/14/2018 6:00 AM 73 85 0 0 4.4
5/14/2018 7:00 AM 73 87 0.03 0 3.95
5/14/2018 8:00 AM 73 83 0.53 0 5.09
5/14/2018 9:00 AM 76 79 0.7 0 6.09
5/14/2018 10:00 AM 76 73 0.83 0 6.38
5/14/2018 11:00 AM 78 64 1.64 0 6.84
5/14/2018 12:00 PM 80 54 2.45 0 7.56
5/14/2018 1:00 PM 83 53 2.86 0 7.68
5/14/2018 2:00 PM 83 50 2.59 0 7.43
5/14/2018 3:00 PM 85 44 3.04 0 8.15
5/14/2018 4:00 PM 86 44 2.79 0 7.79
5/14/2018 5:00 PM 86 45 2.52 0 8.13
5/14/2018 6:00 PM 86 45 1.8 0 7.74
5/14/2018 7:00 PM 86 45 1.05 0 7.28
5/14/2018 8:00 PM 84 47 0.25 0 6.69
5/14/2018 9:00 PM 81 53 0.01 0 6.51
5/14/2018 10:00 PM 79 58 0 0 5.49
5/14/2018 11:00 PM 77 58 0 0 5.1
Data Summary 78 64 23.09 0.00 6.55